createdAt,value
2022-10-25T00:01:19.088Z,1.83
2022-10-25T00:03:45.769Z,2.10
2022-10-25T00:06:13.079Z,1.70
2022-10-25T00:08:39.793Z,1.97
2022-10-25T00:11:07.547Z,1.40
2022-10-25T00:13:34.438Z,1.50
2022-10-25T00:16:01.233Z,1.40
2022-10-25T00:18:28.075Z,1.70
2022-10-25T00:20:54.958Z,1.60
2022-10-25T00:23:21.772Z,1.93
2022-10-25T00:25:48.258Z,1.80
2022-10-25T00:28:14.842Z,2.80
2022-10-25T00:30:41.304Z,2.03
2022-10-25T00:33:07.810Z,1.80
2022-10-25T00:35:36.632Z,1.30
2022-10-25T00:38:03.375Z,1.60
2022-10-25T00:40:29.955Z,2.13
2022-10-25T00:42:56.444Z,2.03
2022-10-25T00:45:25.221Z,2.07
2022-10-25T00:48:04.710Z,1.97
2022-10-25T00:50:46.482Z,1.60
2022-10-25T00:53:16.820Z,1.90
2022-10-25T00:55:49.102Z,1.50
2022-10-25T00:58:19.632Z,2.23
2022-10-25T01:00:46.515Z,1.70
2022-10-25T01:03:15.721Z,2.53
2022-10-25T01:05:43.641Z,2.67
2022-10-25T01:08:10.821Z,1.60
2022-10-25T01:10:38.677Z,1.50
2022-10-25T01:13:05.270Z,1.73
2022-10-25T01:15:56.827Z,2.13
2022-10-25T01:18:30.371Z,1.93
2022-10-25T01:21:15.901Z,1.83
2022-10-25T01:24:15.592Z,1.97
2022-10-25T01:26:56.401Z,1.47
2022-10-25T01:30:06.647Z,2.00
2022-10-25T01:32:54.228Z,1.87
2022-10-25T01:35:28.652Z,1.80
2022-10-25T01:38:07.383Z,1.93
2022-10-25T01:40:33.831Z,1.30
2022-10-25T01:43:09.536Z,1.50
2022-10-25T01:45:54.845Z,1.80
2022-10-25T01:48:33.629Z,2.00
2022-10-25T01:51:10.726Z,1.70
2022-10-25T01:53:48.787Z,1.50
2022-10-25T01:56:25.033Z,1.83
2022-10-25T01:58:51.695Z,2.20
2022-10-25T02:01:37.144Z,1.60
2022-10-25T02:04:29.365Z,1.70
2022-10-25T02:07:12.253Z,1.60
2022-10-25T02:10:11.744Z,1.77
2022-10-25T02:12:56.663Z,1.40
2022-10-25T02:15:30.403Z,2.40
2022-10-25T02:18:01.629Z,2.07
2022-10-25T02:20:32.695Z,1.80
2022-10-25T02:23:01.640Z,1.53
2022-10-25T02:25:29.387Z,1.87
2022-10-25T02:27:58.520Z,2.03
2022-10-25T02:30:25.344Z,1.97
2022-10-25T02:32:52.097Z,1.97
2022-10-25T02:35:19.282Z,2.63
2022-10-25T02:37:46.039Z,2.17
2022-10-25T02:40:13.279Z,1.57
2022-10-25T02:42:39.771Z,1.63
2022-10-25T02:45:07.222Z,1.53
2022-10-25T02:47:33.860Z,1.50
2022-10-25T02:50:00.461Z,1.80
2022-10-25T02:52:27.323Z,2.10
2022-10-25T02:54:53.845Z,1.93
2022-10-25T02:57:20.384Z,1.80
2022-10-25T02:59:46.891Z,2.07
2022-10-25T03:02:13.605Z,1.97
2022-10-25T03:04:40.161Z,1.50
2022-10-25T03:07:06.841Z,1.43
2022-10-25T03:09:33.319Z,2.30
2022-10-25T03:12:00.262Z,2.40
2022-10-25T03:14:26.784Z,2.03
2022-10-25T03:16:53.335Z,2.37
2022-10-25T03:19:19.863Z,1.80
2022-10-25T03:21:46.454Z,1.80
2022-10-25T03:24:13.024Z,1.60
2022-10-25T03:26:39.584Z,1.80
2022-10-25T03:29:06.156Z,1.60
2022-10-25T03:31:32.670Z,2.40
2022-10-25T03:33:59.231Z,1.67
2022-10-25T03:36:25.769Z,1.80
2022-10-25T03:38:52.324Z,2.13
2022-10-25T03:41:18.763Z,1.60
2022-10-25T03:43:45.445Z,3.57
2022-10-25T03:46:12.068Z,1.90
2022-10-25T03:48:38.615Z,2.07
2022-10-25T03:51:05.381Z,1.93
2022-10-25T03:53:32.436Z,2.40
2022-10-25T03:55:59.168Z,2.03
2022-10-25T03:58:25.898Z,2.30
2022-10-25T04:00:52.437Z,1.80
2022-10-25T04:03:19.094Z,2.37
2022-10-25T04:05:45.579Z,1.70
2022-10-25T04:08:12.097Z,1.70
2022-10-25T04:10:38.632Z,2.93
2022-10-25T04:13:05.399Z,1.63
2022-10-25T04:15:32.027Z,1.90
2022-10-25T04:17:58.551Z,2.77
2022-10-25T04:20:25.173Z,2.03
2022-10-25T04:22:58.300Z,2.10
2022-10-25T04:25:26.499Z,1.83
2022-10-25T04:27:53.233Z,2.30
2022-10-25T04:30:20.195Z,2.93
2022-10-25T04:32:47.124Z,2.50
2022-10-25T04:35:14.244Z,2.43
2022-10-25T04:37:40.741Z,2.27
2022-10-25T04:40:08.050Z,2.10
2022-10-25T04:42:35.022Z,2.93
2022-10-25T04:45:01.894Z,3.67
2022-10-25T04:47:31.547Z,2.30
2022-10-25T04:49:58.277Z,3.10
2022-10-25T04:52:25.189Z,2.57
2022-10-25T04:54:51.852Z,2.73
2022-10-25T04:57:18.341Z,2.37
2022-10-25T04:59:44.861Z,2.00
2022-10-25T05:02:12.402Z,2.30
2022-10-25T05:04:39.295Z,2.40
2022-10-25T05:07:06.156Z,3.03
2022-10-25T05:09:32.726Z,2.40
2022-10-25T05:11:59.378Z,1.83
2022-10-25T05:14:26.330Z,3.33
2022-10-25T05:16:52.857Z,1.60
2022-10-25T05:19:19.335Z,3.37
2022-10-25T05:21:45.879Z,1.57
2022-10-25T05:24:12.500Z,1.73
2022-10-25T05:26:39.009Z,1.97
2022-10-25T05:29:10.003Z,2.30
2022-10-25T05:31:38.680Z,2.40
2022-10-25T05:34:05.530Z,2.83
2022-10-25T05:36:33.456Z,3.03
2022-10-25T05:39:01.160Z,2.40
2022-10-25T05:41:30.708Z,2.90
2022-10-25T05:44:00.023Z,3.20
2022-10-25T05:46:26.600Z,3.13
2022-10-25T05:48:53.769Z,3.27
2022-10-25T05:51:39.076Z,2.50
2022-10-25T05:54:13.737Z,3.00
2022-10-25T05:56:41.370Z,2.97
2022-10-25T05:59:11.060Z,3.10
2022-10-25T06:01:39.761Z,2.50
2022-10-25T06:04:06.941Z,2.80
2022-10-25T06:06:33.720Z,2.67
2022-10-25T06:09:01.122Z,2.30
2022-10-25T06:11:28.925Z,2.70
2022-10-25T06:13:55.552Z,2.50
2022-10-25T06:16:22.677Z,2.57
2022-10-25T06:18:49.561Z,2.20
2022-10-25T06:21:21.843Z,1.90
2022-10-25T06:23:48.756Z,2.00
2022-10-25T06:26:17.499Z,2.00
2022-10-25T06:28:44.227Z,2.53
2022-10-25T06:31:15.715Z,1.70
2022-10-25T06:33:42.836Z,2.53
2022-10-25T06:36:16.239Z,2.70
2022-10-25T06:38:46.829Z,3.00
2022-10-25T06:41:15.488Z,3.20
2022-10-25T06:43:42.085Z,3.50
2022-10-25T06:46:23.667Z,2.87
2022-10-25T06:48:51.246Z,3.43
2022-10-25T06:51:18.384Z,1.93
2022-10-25T06:53:45.719Z,2.70
2022-10-25T06:56:14.679Z,2.43
2022-10-25T06:58:41.765Z,2.80
2022-10-25T07:01:14.080Z,2.60
2022-10-25T07:03:41.254Z,2.10
2022-10-25T07:06:09.571Z,2.60
2022-10-25T07:08:39.762Z,6.17
2022-10-25T07:11:07.010Z,3.40
2022-10-25T07:13:34.111Z,2.23
2022-10-25T07:16:05.202Z,3.20
2022-10-25T07:18:32.301Z,2.70
2022-10-25T07:21:04.336Z,2.23
2022-10-25T07:23:30.931Z,3.10
2022-10-25T07:25:58.348Z,3.47
2022-10-25T07:28:25.174Z,2.60
2022-10-25T07:30:51.979Z,1.93
2022-10-25T07:33:20.064Z,2.47
2022-10-25T07:36:09.587Z,2.50
2022-10-25T07:38:37.554Z,2.73
2022-10-25T07:41:04.264Z,3.10
2022-10-25T07:43:30.879Z,2.70
2022-10-25T07:45:57.530Z,2.40
2022-10-25T07:48:24.750Z,2.33
2022-10-25T07:50:51.362Z,2.80
2022-10-25T07:53:18.735Z,2.17
2022-10-25T07:55:52.277Z,2.17
2022-10-25T07:58:18.951Z,2.97
2022-10-25T08:00:45.495Z,2.00
2022-10-25T08:03:13.172Z,2.30
2022-10-25T08:05:40.107Z,2.53
2022-10-25T08:08:06.849Z,3.17
2022-10-25T08:10:33.408Z,2.20
2022-10-25T08:12:59.983Z,3.13
2022-10-25T08:15:26.575Z,2.70
2022-10-25T08:18:00.213Z,2.40
2022-10-25T08:20:43.340Z,2.23
2022-10-25T08:23:13.525Z,2.50
2022-10-25T08:25:40.307Z,3.30
2022-10-25T08:28:07.065Z,2.30
2022-10-25T08:30:33.733Z,3.03
2022-10-25T08:33:00.673Z,2.93
2022-10-25T08:35:27.282Z,2.70
2022-10-25T08:37:54.390Z,1.70
2022-10-25T08:40:22.308Z,1.93
2022-10-25T08:43:21.214Z,2.10
2022-10-25T08:45:57.530Z,2.53
2022-10-25T08:48:37.051Z,2.30
2022-10-25T08:51:25.023Z,2.07
2022-10-25T08:56:26.247Z,2.60
2022-10-25T08:58:58.407Z,2.00
2022-10-25T09:01:29.737Z,2.20
2022-10-25T09:03:56.489Z,2.13
2022-10-25T09:06:33.531Z,2.47
2022-10-25T09:09:25.581Z,2.90
2022-10-25T09:12:20.177Z,2.17
2022-10-25T09:15:08.627Z,2.40
2022-10-25T09:17:49.391Z,3.20
2022-10-25T09:20:30.092Z,2.03
2022-10-25T09:23:14.319Z,2.00
2022-10-25T09:26:05.754Z,2.53
2022-10-25T09:29:09.525Z,2.20
2022-10-25T09:31:50.542Z,3.73
2022-10-25T09:34:19.234Z,1.90
2022-10-25T09:36:52.919Z,2.90
2022-10-25T09:39:23.587Z,2.07
2022-10-25T09:41:53.601Z,2.00
2022-10-25T09:44:29.520Z,2.50
2022-10-25T09:47:46.415Z,2.07
2022-10-25T09:50:24.234Z,2.73
2022-10-25T09:53:12.826Z,1.93
2022-10-25T09:55:59.713Z,2.00
2022-10-25T09:58:28.537Z,1.77
2022-10-25T10:00:57.416Z,1.90
2022-10-25T10:03:28.263Z,1.97
2022-10-25T10:05:57.777Z,2.20
2022-10-25T10:08:25.267Z,2.17
2022-10-25T10:10:52.739Z,2.10
2022-10-25T10:13:39.042Z,2.13
2022-10-25T10:16:24.537Z,2.20
2022-10-25T10:18:51.395Z,1.80
2022-10-25T10:21:20.322Z,2.40
2022-10-25T10:23:55.176Z,2.60
2022-10-25T10:26:35.044Z,2.03
2022-10-25T10:29:19.157Z,2.10
2022-10-25T10:31:51.636Z,2.40
2022-10-25T10:34:26.406Z,2.07
2022-10-25T10:37:21.039Z,1.80
2022-10-25T10:40:10.904Z,2.63
2022-10-25T10:42:41.582Z,1.70
2022-10-25T10:45:08.034Z,1.90
2022-10-25T10:47:37.384Z,1.77
2022-10-25T10:50:32.645Z,2.47
2022-10-25T10:53:13.836Z,2.20
2022-10-25T10:55:46.263Z,2.43
2022-10-25T10:58:23.016Z,2.83
2022-10-25T11:00:55.572Z,7.60
2022-10-25T11:03:53.893Z,2.47
2022-10-25T11:06:34.428Z,2.60
2022-10-25T11:09:10.262Z,2.90
2022-10-25T11:11:36.838Z,2.90
2022-10-25T11:14:11.556Z,1.73
2022-10-25T11:16:38.198Z,2.60
2022-10-25T11:19:10.858Z,2.30
2022-10-25T11:21:46.858Z,2.43
2022-10-25T11:24:31.829Z,1.90
2022-10-25T11:27:19.460Z,1.63
2022-10-25T11:29:49.132Z,2.13
2022-10-25T11:32:37.468Z,2.77
2022-10-25T11:35:50.690Z,2.00
2022-10-25T11:38:28.011Z,2.67
2022-10-25T11:41:26.887Z,2.97
2022-10-25T11:44:12.443Z,2.37
2022-10-25T11:47:07.088Z,2.90
2022-10-25T11:49:58.982Z,2.00
2022-10-25T11:52:47.092Z,1.87
2022-10-25T11:55:32.857Z,2.13
2022-10-25T11:58:37.133Z,2.70
2022-10-25T12:01:25.408Z,2.33
2022-10-25T12:04:03.982Z,1.90
2022-10-25T12:07:08.309Z,1.57
2022-10-25T12:09:40.795Z,1.63
2022-10-25T12:12:13.189Z,2.10
2022-10-25T12:14:43.306Z,2.43
2022-10-25T12:17:30.766Z,2.77
2022-10-25T12:19:59.617Z,1.80
2022-10-25T12:22:35.789Z,2.57
2022-10-25T12:25:09.282Z,2.67
2022-10-25T12:27:37.131Z,2.07
2022-10-25T12:30:07.209Z,2.77
2022-10-25T12:32:38.921Z,1.97
2022-10-25T12:35:15.597Z,2.10
2022-10-25T12:37:49.607Z,2.43
2022-10-25T12:40:20.847Z,2.37
2022-10-25T12:42:55.060Z,2.80
2022-10-25T12:46:01.117Z,2.00
2022-10-25T12:49:05.026Z,2.37
2022-10-25T12:52:04.348Z,1.80
2022-10-25T12:54:40.021Z,2.13
2022-10-25T12:57:28.365Z,2.53
2022-10-25T13:00:11.611Z,2.20
2022-10-25T13:02:52.844Z,1.77
2022-10-25T13:05:31.049Z,2.87
2022-10-25T13:07:59.827Z,2.77
2022-10-25T13:13:04.863Z,2.70
2022-10-25T13:15:44.999Z,2.13
2022-10-25T13:18:44.521Z,1.80
2022-10-25T13:21:13.637Z,2.37
2022-10-25T13:23:43.240Z,1.93
2022-10-25T13:26:12.318Z,2.30
2022-10-25T13:28:46.042Z,2.80
2022-10-25T13:31:34.765Z,2.60
2022-10-25T13:34:13.494Z,1.97
2022-10-25T13:36:54.048Z,2.20
2022-10-25T13:39:44.049Z,2.37
2022-10-25T13:42:16.666Z,2.90
2022-10-25T13:45:04.776Z,2.40
2022-10-25T13:47:44.061Z,1.70
2022-10-25T13:53:26.205Z,2.47
2022-10-25T13:56:13.101Z,2.10
2022-10-25T13:58:51.219Z,4.00
2022-10-25T14:01:17.944Z,3.00
2022-10-25T14:03:50.476Z,4.23
2022-10-25T14:06:27.832Z,2.83
2022-10-25T14:09:09.855Z,2.83
2022-10-25T14:11:48.528Z,1.77
2022-10-25T14:14:27.422Z,4.23
2022-10-25T14:17:04.334Z,3.53
2022-10-25T14:19:41.884Z,2.30
2022-10-25T14:22:16.134Z,5.03
2022-10-25T14:24:44.302Z,2.57
2022-10-25T14:27:33.787Z,2.30
2022-10-25T14:30:26.953Z,2.73
2022-10-25T14:33:00.940Z,2.30
2022-10-25T14:35:45.553Z,2.17
2022-10-25T14:38:18.220Z,2.30
2022-10-25T14:40:52.940Z,4.17
2022-10-25T14:43:31.678Z,2.70
2022-10-25T14:46:14.481Z,3.00
2022-10-25T14:48:42.944Z,2.67
2022-10-25T14:51:19.513Z,2.90
2022-10-25T14:54:08.370Z,2.77
2022-10-25T14:56:38.345Z,2.70
2022-10-25T14:59:06.881Z,2.50
2022-10-25T15:01:33.954Z,2.03
2022-10-25T15:04:01.301Z,2.60
2022-10-25T15:06:30.263Z,2.63
2022-10-25T15:09:37.408Z,2.43
2022-10-25T15:12:12.946Z,3.03
2022-10-25T15:14:39.810Z,3.23
2022-10-25T15:17:15.866Z,3.00
2022-10-25T15:20:02.759Z,3.43
2022-10-25T15:22:47.301Z,3.80
2022-10-25T15:25:30.118Z,3.10
2022-10-25T15:27:57.161Z,4.10
2022-10-25T15:30:43.903Z,3.60
2022-10-25T15:33:16.350Z,2.57
2022-10-25T15:35:57.490Z,2.63
2022-10-25T15:38:47.940Z,2.50
2022-10-25T15:41:18.782Z,2.20
2022-10-25T15:43:45.429Z,2.40
2022-10-25T15:46:27.911Z,2.97
2022-10-25T15:48:54.684Z,2.70
2022-10-25T15:51:22.439Z,5.30
2022-10-25T15:53:50.711Z,3.23
2022-10-25T15:56:19.663Z,2.47
2022-10-25T15:58:46.577Z,2.80
2022-10-25T16:01:13.386Z,3.13
2022-10-25T16:03:39.936Z,5.50
2022-10-25T16:06:06.885Z,6.60
2022-10-25T16:11:00.549Z,6.67
2022-10-25T16:13:31.038Z,4.73
2022-10-25T16:15:58.018Z,6.17
2022-10-25T16:18:26.513Z,3.27
2022-10-25T16:20:56.431Z,3.80
2022-10-25T16:23:25.202Z,3.43
2022-10-25T16:25:56.563Z,4.60
2022-10-25T16:28:23.081Z,2.90
2022-10-25T16:30:49.792Z,3.20
2022-10-25T16:33:16.536Z,3.47
2022-10-25T16:35:46.104Z,3.90
2022-10-25T16:38:12.974Z,3.53
2022-10-25T16:40:39.827Z,3.50
2022-10-25T16:43:06.404Z,3.97
2022-10-25T16:45:38.830Z,3.80
2022-10-25T16:48:08.244Z,3.77
2022-10-25T16:50:36.196Z,4.00
2022-10-25T16:53:07.426Z,4.73
2022-10-25T16:55:33.974Z,4.33
2022-10-25T16:58:04.270Z,4.77
2022-10-25T17:00:35.947Z,4.70
2022-10-25T17:03:03.027Z,4.23
2022-10-25T17:05:32.624Z,5.53
2022-10-25T17:07:59.265Z,5.60
2022-10-25T17:10:26.152Z,6.63
2022-10-25T17:12:56.577Z,5.10
2022-10-25T17:15:23.427Z,4.07
2022-10-25T17:17:50.396Z,3.30
2022-10-25T17:20:17.744Z,3.53
2022-10-25T17:22:44.503Z,2.50
2022-10-25T17:25:11.383Z,4.43
2022-10-25T17:27:41.239Z,3.10
2022-10-25T17:30:10.704Z,4.00
2022-10-25T17:32:38.031Z,5.13
2022-10-25T17:35:06.220Z,10.10
2022-10-25T17:37:33.000Z,9.40
2022-10-25T17:40:02.719Z,8.10
2022-10-25T17:42:29.381Z,9.40
2022-10-25T17:44:55.964Z,11.30
2022-10-25T17:47:22.575Z,10.67
2022-10-25T17:49:49.265Z,9.20
2022-10-25T17:52:15.932Z,11.07
2022-10-25T17:54:43.272Z,11.00
2022-10-25T17:57:09.762Z,13.37
2022-10-25T17:59:36.460Z,13.63
2022-10-25T18:02:03.059Z,12.90
2022-10-25T18:04:41.822Z,13.30
2022-10-25T18:07:15.368Z,13.80
2022-10-25T18:09:41.967Z,13.60
2022-10-25T18:12:09.591Z,12.37
2022-10-25T18:14:36.333Z,9.73
2022-10-25T18:17:03.490Z,9.80
2022-10-25T18:19:30.021Z,9.50
2022-10-25T18:22:00.590Z,9.70
2022-10-25T18:24:29.400Z,9.30
2022-10-25T18:26:56.511Z,10.30
2022-10-25T18:29:23.733Z,8.37
2022-10-25T18:31:50.745Z,7.40
2022-10-25T18:34:18.065Z,6.33
2022-10-25T18:36:44.857Z,7.27
2022-10-25T18:39:12.682Z,6.50
2022-10-25T18:41:41.374Z,6.30
2022-10-25T18:44:14.295Z,5.20
2022-10-25T18:46:43.048Z,3.93
2022-10-25T18:49:13.850Z,5.70
2022-10-25T18:51:41.278Z,6.67
2022-10-25T18:54:12.573Z,4.93
2022-10-25T18:56:39.492Z,3.80
2022-10-25T18:59:06.319Z,4.13
2022-10-25T19:01:33.765Z,5.10
2022-10-25T19:04:02.387Z,5.33
2022-10-25T19:06:29.828Z,4.73
2022-10-25T19:08:56.526Z,4.60
2022-10-25T19:11:24.295Z,5.20
2022-10-25T19:13:55.278Z,4.23
2022-10-25T19:16:22.967Z,4.20
2022-10-25T19:18:51.099Z,4.03
2022-10-25T19:21:18.727Z,4.33
2022-10-25T19:23:46.602Z,6.37
2022-10-25T19:26:19.048Z,8.40
2022-10-25T19:28:46.452Z,8.17
2022-10-25T19:31:15.565Z,7.07
2022-10-25T19:33:46.822Z,6.60
2022-10-25T19:36:13.769Z,5.40
2022-10-25T19:38:40.482Z,6.00
2022-10-25T19:41:08.994Z,6.60
2022-10-25T19:43:36.352Z,5.50
2022-10-25T19:46:04.868Z,4.80
2022-10-25T19:48:32.471Z,5.47
2022-10-25T19:51:10.478Z,5.30
2022-10-25T19:53:37.410Z,4.97
2022-10-25T19:56:07.779Z,5.57
2022-10-25T19:58:35.487Z,5.87
2022-10-25T20:01:07.763Z,5.03
2022-10-25T20:03:35.826Z,5.57
2022-10-25T20:06:13.667Z,6.67
2022-10-25T20:08:40.670Z,6.03
2022-10-25T20:11:08.452Z,4.70
2022-10-25T20:13:35.150Z,5.80
2022-10-25T20:16:02.579Z,4.90
2022-10-25T20:18:31.657Z,5.40
2022-10-25T20:21:03.962Z,5.77
2022-10-25T20:23:31.553Z,6.03
2022-10-25T20:25:58.220Z,5.60
2022-10-25T20:28:24.893Z,4.87
2022-10-25T20:30:51.604Z,4.53
2022-10-25T20:33:20.374Z,5.47
2022-10-25T20:35:46.901Z,4.97
2022-10-25T20:38:16.916Z,6.20
2022-10-25T20:40:45.262Z,5.23
2022-10-25T20:43:11.809Z,5.03
2022-10-25T20:45:38.321Z,5.73
2022-10-25T20:48:04.875Z,6.50
2022-10-25T20:50:31.495Z,6.13
2022-10-25T20:53:09.614Z,6.23
2022-10-25T20:55:36.994Z,6.70
2022-10-25T20:58:03.515Z,5.07
2022-10-25T21:00:30.102Z,4.03
2022-10-25T21:02:56.801Z,3.33
2022-10-25T21:05:23.310Z,3.60
2022-10-25T21:07:50.232Z,4.20
2022-10-25T21:10:17.166Z,3.80
2022-10-25T21:12:43.779Z,4.60
2022-10-25T21:15:12.086Z,3.23
2022-10-25T21:17:39.115Z,3.97
2022-10-25T21:20:06.240Z,4.93
2022-10-25T21:22:32.827Z,4.30
2022-10-25T21:24:59.606Z,4.57
2022-10-25T21:27:26.311Z,4.17
2022-10-25T21:29:52.831Z,3.90
2022-10-25T21:32:19.579Z,3.23
2022-10-25T21:34:46.419Z,3.13
2022-10-25T21:37:13.780Z,2.80
2022-10-25T21:39:40.414Z,2.73
2022-10-25T21:42:06.916Z,3.53
2022-10-25T21:44:33.483Z,3.70
2022-10-25T21:47:00.129Z,2.33
2022-10-25T21:49:26.845Z,2.50
2022-10-25T21:51:53.418Z,2.30
2022-10-25T21:54:21.990Z,2.83
2022-10-25T21:56:48.795Z,2.77
2022-10-25T21:59:15.303Z,3.07
2022-10-25T22:01:41.878Z,2.47
2022-10-25T22:04:10.919Z,3.00
2022-10-25T22:06:37.904Z,3.13
2022-10-25T22:09:04.870Z,3.43
2022-10-25T22:11:36.768Z,2.53
2022-10-25T22:14:08.692Z,2.70
2022-10-25T22:16:35.459Z,4.70
2022-10-25T22:19:06.379Z,3.37
2022-10-25T22:21:38.628Z,2.40
2022-10-25T22:24:06.543Z,3.50
2022-10-25T22:26:33.022Z,3.00
2022-10-25T22:28:59.529Z,2.30
2022-10-25T22:31:28.226Z,2.57
2022-10-25T22:33:56.809Z,2.50
2022-10-25T22:36:25.827Z,2.40
2022-10-25T22:38:55.206Z,3.60
2022-10-25T22:41:23.578Z,2.50
2022-10-25T22:43:50.399Z,2.57
2022-10-25T22:46:23.714Z,2.80
2022-10-25T22:48:53.339Z,3.20
2022-10-25T22:51:21.021Z,2.90
2022-10-25T22:53:48.743Z,3.37
2022-10-25T22:56:21.682Z,2.70
2022-10-25T22:58:50.029Z,3.10
2022-10-25T23:01:19.524Z,2.70
2022-10-25T23:03:52.054Z,2.87
2022-10-25T23:06:22.842Z,3.17
2022-10-25T23:08:52.907Z,3.37
2022-10-25T23:11:26.078Z,2.67
2022-10-25T23:13:53.159Z,3.27
2022-10-25T23:16:20.404Z,2.50
2022-10-25T23:18:47.302Z,2.67
2022-10-25T23:21:17.141Z,2.93
2022-10-25T23:23:44.424Z,2.70
2022-10-25T23:26:19.006Z,3.10
2022-10-25T23:28:45.601Z,2.60
2022-10-25T23:31:13.125Z,2.90
2022-10-25T23:33:40.280Z,2.80
2022-10-25T23:36:12.789Z,2.43
2022-10-25T23:38:39.441Z,2.80
2022-10-25T23:41:06.352Z,2.40
2022-10-25T23:43:33.134Z,2.40
2022-10-25T23:45:59.651Z,2.10
2022-10-25T23:48:26.228Z,2.33
2022-10-25T23:53:28.404Z,2.03
2022-10-25T23:55:55.526Z,3.20
2022-10-25T23:58:22.946Z,2.30
